sensor_id;sensor_type;location;lat;lon;timestamp;P1;durP1;ratioP1;P2;durP2;ratioP2
769;SDS011;368;48.698;9.116;2024-03-06T00:01:53;6.73;;;4.53;;
769;SDS011;368;48.698;9.116;2024-03-06T00:04:21;7.37;;;4.77;;
769;SDS011;368;48.698;9.116;2024-03-06T00:06:47;4.60;;;3.97;;
769;SDS011;368;48.698;9.116;2024-03-06T00:09:16;4.53;;;4.03;;
769;SDS011;368;48.698;9.116;2024-03-06T00:11:45;4.83;;;4.40;;
769;SDS011;368;48.698;9.116;2024-03-06T00:14:12;4.27;;;3.87;;
769;SDS011;368;48.698;9.116;2024-03-06T00:16:38;4.77;;;4.23;;
769;SDS011;368;48.698;9.116;2024-03-06T00:19:05;4.17;;;3.80;;
769;SDS011;368;48.698;9.116;2024-03-06T00:21:32;4.77;;;4.27;;
769;SDS011;368;48.698;9.116;2024-03-06T00:23:59;6.00;;;4.87;;
769;SDS011;368;48.698;9.116;2024-03-06T00:26:25;5.00;;;4.43;;
769;SDS011;368;48.698;9.116;2024-03-06T00:28:54;4.47;;;3.80;;
769;SDS011;368;48.698;9.116;2024-03-06T00:31:20;4.80;;;4.27;;
769;SDS011;368;48.698;9.116;2024-03-06T00:33:47;5.23;;;4.53;;
769;SDS011;368;48.698;9.116;2024-03-06T00:36:14;5.33;;;4.50;;
769;SDS011;368;48.698;9.116;2024-03-06T00:38:41;4.57;;;4.17;;
769;SDS011;368;48.698;9.116;2024-03-06T00:41:09;3.93;;;2.73;;
769;SDS011;368;48.698;9.116;2024-03-06T00:43:35;3.17;;;2.87;;
769;SDS011;368;48.698;9.116;2024-03-06T00:46:04;2.50;;;2.30;;
769;SDS011;368;48.698;9.116;2024-03-06T00:48:31;3.77;;;3.17;;
769;SDS011;368;48.698;9.116;2024-03-06T00:50:58;5.20;;;4.67;;
769;SDS011;368;48.698;9.116;2024-03-06T00:53:24;4.30;;;3.73;;
769;SDS011;368;48.698;9.116;2024-03-06T00:55:51;4.77;;;4.37;;
769;SDS011;368;48.698;9.116;2024-03-06T00:58:18;5.70;;;4.13;;
769;SDS011;368;48.698;9.116;2024-03-06T01:00:45;4.00;;;3.57;;
769;SDS011;368;48.698;9.116;2024-03-06T01:03:13;3.30;;;3.00;;
769;SDS011;368;48.698;9.116;2024-03-06T01:05:40;4.53;;;3.70;;
769;SDS011;368;48.698;9.116;2024-03-06T01:08:07;5.93;;;2.90;;
769;SDS011;368;48.698;9.116;2024-03-06T01:10:34;4.37;;;3.37;;
769;SDS011;368;48.698;9.116;2024-03-06T01:13:00;3.40;;;3.03;;
769;SDS011;368;48.698;9.116;2024-03-06T01:15:27;4.80;;;3.80;;
769;SDS011;368;48.698;9.116;2024-03-06T01:17:54;3.60;;;3.20;;
769;SDS011;368;48.698;9.116;2024-03-06T01:20:24;4.27;;;3.87;;
769;SDS011;368;48.698;9.116;2024-03-06T01:22:51;4.57;;;4.17;;
769;SDS011;368;48.698;9.116;2024-03-06T01:25:18;4.90;;;3.87;;
769;SDS011;368;48.698;9.116;2024-03-06T01:27:44;4.57;;;3.83;;
769;SDS011;368;48.698;9.116;2024-03-06T01:30:11;3.87;;;3.47;;
769;SDS011;368;48.698;9.116;2024-03-06T01:32:38;4.20;;;3.63;;
769;SDS011;368;48.698;9.116;2024-03-06T01:35:05;4.37;;;2.80;;
769;SDS011;368;48.698;9.116;2024-03-06T01:37:34;4.40;;;3.40;;
769;SDS011;368;48.698;9.116;2024-03-06T01:40:01;3.70;;;3.27;;
769;SDS011;368;48.698;9.116;2024-03-06T01:42:29;6.30;;;3.10;;
769;SDS011;368;48.698;9.116;2024-03-06T01:44:56;4.43;;;2.77;;
769;SDS011;368;48.698;9.116;2024-03-06T01:47:23;3.70;;;3.30;;
769;SDS011;368;48.698;9.116;2024-03-06T01:49:50;5.53;;;3.53;;
769;SDS011;368;48.698;9.116;2024-03-06T01:52:16;4.10;;;3.20;;
769;SDS011;368;48.698;9.116;2024-03-06T01:54:48;4.23;;;2.80;;
769;SDS011;368;48.698;9.116;2024-03-06T01:57:16;5.20;;;2.73;;
769;SDS011;368;48.698;9.116;2024-03-06T01:59:45;3.50;;;3.00;;
769;SDS011;368;48.698;9.116;2024-03-06T02:02:12;3.83;;;3.20;;
769;SDS011;368;48.698;9.116;2024-03-06T02:04:39;3.77;;;2.60;;
769;SDS011;368;48.698;9.116;2024-03-06T02:07:08;3.93;;;3.00;;
769;SDS011;368;48.698;9.116;2024-03-06T02:09:36;5.17;;;3.10;;
769;SDS011;368;48.698;9.116;2024-03-06T02:12:04;3.23;;;2.93;;
769;SDS011;368;48.698;9.116;2024-03-06T02:14:33;3.17;;;2.83;;
769;SDS011;368;48.698;9.116;2024-03-06T02:17:00;3.97;;;2.90;;
769;SDS011;368;48.698;9.116;2024-03-06T02:19:36;5.37;;;3.33;;
769;SDS011;368;48.698;9.116;2024-03-06T02:22:06;4.13;;;2.70;;
769;SDS011;368;48.698;9.116;2024-03-06T02:24:33;3.40;;;2.87;;
769;SDS011;368;48.698;9.116;2024-03-06T02:27:00;3.30;;;3.00;;
769;SDS011;368;48.698;9.116;2024-03-06T02:29:27;2.93;;;2.60;;
769;SDS011;368;48.698;9.116;2024-03-06T02:31:54;3.97;;;3.10;;
769;SDS011;368;48.698;9.116;2024-03-06T02:34:21;5.80;;;3.43;;
769;SDS011;368;48.698;9.116;2024-03-06T02:36:49;4.60;;;3.90;;
769;SDS011;368;48.698;9.116;2024-03-06T02:39:18;4.30;;;3.47;;
769;SDS011;368;48.698;9.116;2024-03-06T02:41:46;3.87;;;3.53;;
769;SDS011;368;48.698;9.116;2024-03-06T02:44:13;4.67;;;3.80;;
769;SDS011;368;48.698;9.116;2024-03-06T02:46:41;3.97;;;3.43;;
769;SDS011;368;48.698;9.116;2024-03-06T02:49:12;3.43;;;3.00;;
769;SDS011;368;48.698;9.116;2024-03-06T02:51:38;4.50;;;3.57;;
769;SDS011;368;48.698;9.116;2024-03-06T02:54:05;6.40;;;3.90;;
769;SDS011;368;48.698;9.116;2024-03-06T02:56:33;3.73;;;3.40;;
769;SDS011;368;48.698;9.116;2024-03-06T02:59:01;4.67;;;3.83;;
769;SDS011;368;48.698;9.116;2024-03-06T03:01:29;3.20;;;2.90;;
769;SDS011;368;48.698;9.116;2024-03-06T03:03:56;4.87;;;3.40;;
769;SDS011;368;48.698;9.116;2024-03-06T03:06:23;4.70;;;3.00;;
769;SDS011;368;48.698;9.116;2024-03-06T03:08:50;5.23;;;2.87;;
769;SDS011;368;48.698;9.116;2024-03-06T03:11:17;4.83;;;3.53;;
769;SDS011;368;48.698;9.116;2024-03-06T03:13:45;5.03;;;3.57;;
769;SDS011;368;48.698;9.116;2024-03-06T03:16:15;3.67;;;3.23;;
769;SDS011;368;48.698;9.116;2024-03-06T03:18:43;3.50;;;3.20;;
769;SDS011;368;48.698;9.116;2024-03-06T03:21:10;4.30;;;3.10;;
769;SDS011;368;48.698;9.116;2024-03-06T03:23:38;4.70;;;2.67;;
769;SDS011;368;48.698;9.116;2024-03-06T03:26:05;5.83;;;3.20;;
769;SDS011;368;48.698;9.116;2024-03-06T03:28:32;5.10;;;3.37;;
769;SDS011;368;48.698;9.116;2024-03-06T03:31:00;5.27;;;3.60;;
769;SDS011;368;48.698;9.116;2024-03-06T03:33:27;3.33;;;3.03;;
769;SDS011;368;48.698;9.116;2024-03-06T03:35:54;5.23;;;3.17;;
769;SDS011;368;48.698;9.116;2024-03-06T03:38:23;3.07;;;2.77;;
769;SDS011;368;48.698;9.116;2024-03-06T03:40:50;6.33;;;2.97;;
769;SDS011;368;48.698;9.116;2024-03-06T03:43:17;3.80;;;3.07;;
769;SDS011;368;48.698;9.116;2024-03-06T03:45:44;4.13;;;3.43;;
769;SDS011;368;48.698;9.116;2024-03-06T03:48:12;3.43;;;2.97;;
769;SDS011;368;48.698;9.116;2024-03-06T03:50:39;6.53;;;3.73;;
769;SDS011;368;48.698;9.116;2024-03-06T03:53:06;6.80;;;4.40;;
769;SDS011;368;48.698;9.116;2024-03-06T03:55:33;4.90;;;3.43;;
769;SDS011;368;48.698;9.116;2024-03-06T03:58:00;3.77;;;3.17;;
769;SDS011;368;48.698;9.116;2024-03-06T04:00:27;5.13;;;3.90;;
769;SDS011;368;48.698;9.116;2024-03-06T04:02:54;3.90;;;2.93;;
769;SDS011;368;48.698;9.116;2024-03-06T04:05:23;5.90;;;3.63;;
769;SDS011;368;48.698;9.116;2024-03-06T04:07:49;4.07;;;3.67;;
769;SDS011;368;48.698;9.116;2024-03-06T04:10:16;3.83;;;3.53;;
769;SDS011;368;48.698;9.116;2024-03-06T04:12:43;3.57;;;3.20;;
769;SDS011;368;48.698;9.116;2024-03-06T04:15:10;5.20;;;3.87;;
769;SDS011;368;48.698;9.116;2024-03-06T04:17:37;5.20;;;3.77;;
769;SDS011;368;48.698;9.116;2024-03-06T04:20:06;5.53;;;4.10;;
769;SDS011;368;48.698;9.116;2024-03-06T04:22:38;5.43;;;3.93;;
769;SDS011;368;48.698;9.116;2024-03-06T04:25:05;5.03;;;3.53;;
769;SDS011;368;48.698;9.116;2024-03-06T04:27:32;5.07;;;4.57;;
769;SDS011;368;48.698;9.116;2024-03-06T04:29:59;12.40;;;4.67;;
769;SDS011;368;48.698;9.116;2024-03-06T04:32:26;7.50;;;4.30;;
769;SDS011;368;48.698;9.116;2024-03-06T04:34:53;4.50;;;4.10;;
769;SDS011;368;48.698;9.116;2024-03-06T04:37:21;8.80;;;4.13;;
769;SDS011;368;48.698;9.116;2024-03-06T04:39:49;4.23;;;3.80;;
769;SDS011;368;48.698;9.116;2024-03-06T04:42:16;5.20;;;3.83;;
769;SDS011;368;48.698;9.116;2024-03-06T04:44:44;4.10;;;3.70;;
769;SDS011;368;48.698;9.116;2024-03-06T04:47:12;5.80;;;4.17;;
769;SDS011;368;48.698;9.116;2024-03-06T04:49:39;5.53;;;4.33;;
769;SDS011;368;48.698;9.116;2024-03-06T04:52:05;6.03;;;4.40;;
769;SDS011;368;48.698;9.116;2024-03-06T04:54:34;5.17;;;4.53;;
769;SDS011;368;48.698;9.116;2024-03-06T04:57:02;4.87;;;4.30;;
769;SDS011;368;48.698;9.116;2024-03-06T04:59:29;4.73;;;3.80;;
769;SDS011;368;48.698;9.116;2024-03-06T05:01:56;5.80;;;4.60;;
769;SDS011;368;48.698;9.116;2024-03-06T05:04:23;9.10;;;4.93;;
769;SDS011;368;48.698;9.116;2024-03-06T05:06:50;6.57;;;4.30;;
769;SDS011;368;48.698;9.116;2024-03-06T05:09:16;6.43;;;4.70;;
769;SDS011;368;48.698;9.116;2024-03-06T05:11:43;5.33;;;4.50;;
769;SDS011;368;48.698;9.116;2024-03-06T05:14:12;5.00;;;4.43;;
769;SDS011;368;48.698;9.116;2024-03-06T05:16:38;7.70;;;5.93;;
769;SDS011;368;48.698;9.116;2024-03-06T05:19:05;7.87;;;6.63;;
769;SDS011;368;48.698;9.116;2024-03-06T05:21:32;6.00;;;5.40;;
769;SDS011;368;48.698;9.116;2024-03-06T05:24:00;6.90;;;5.50;;
769;SDS011;368;48.698;9.116;2024-03-06T05:26:27;6.70;;;4.77;;
769;SDS011;368;48.698;9.116;2024-03-06T05:28:55;6.57;;;5.90;;
769;SDS011;368;48.698;9.116;2024-03-06T05:31:23;5.77;;;4.70;;
769;SDS011;368;48.698;9.116;2024-03-06T05:33:50;7.10;;;6.37;;
769;SDS011;368;48.698;9.116;2024-03-06T05:36:17;5.50;;;5.10;;
769;SDS011;368;48.698;9.116;2024-03-06T05:38:44;7.07;;;5.10;;
769;SDS011;368;48.698;9.116;2024-03-06T05:41:11;6.23;;;4.97;;
769;SDS011;368;48.698;9.116;2024-03-06T05:43:37;6.23;;;5.50;;
769;SDS011;368;48.698;9.116;2024-03-06T05:46:06;7.37;;;5.87;;
769;SDS011;368;48.698;9.116;2024-03-06T05:48:34;6.33;;;4.97;;
769;SDS011;368;48.698;9.116;2024-03-06T05:51:01;8.90;;;5.53;;
769;SDS011;368;48.698;9.116;2024-03-06T05:53:28;8.70;;;4.87;;
769;SDS011;368;48.698;9.116;2024-03-06T05:55:55;8.10;;;6.07;;
769;SDS011;368;48.698;9.116;2024-03-06T05:58:21;7.23;;;6.23;;
769;SDS011;368;48.698;9.116;2024-03-06T06:00:48;8.87;;;6.83;;
769;SDS011;368;48.698;9.116;2024-03-06T06:03:15;9.70;;;7.40;;
769;SDS011;368;48.698;9.116;2024-03-06T06:05:43;6.57;;;5.40;;
769;SDS011;368;48.698;9.116;2024-03-06T06:08:10;6.73;;;5.77;;
769;SDS011;368;48.698;9.116;2024-03-06T06:10:37;7.50;;;5.83;;
769;SDS011;368;48.698;9.116;2024-03-06T06:13:04;7.57;;;5.87;;
769;SDS011;368;48.698;9.116;2024-03-06T06:15:31;8.60;;;6.90;;
769;SDS011;368;48.698;9.116;2024-03-06T06:17:58;6.13;;;5.53;;
769;SDS011;368;48.698;9.116;2024-03-06T06:20:24;8.47;;;6.37;;
769;SDS011;368;48.698;9.116;2024-03-06T06:22:53;7.57;;;5.57;;
769;SDS011;368;48.698;9.116;2024-03-06T06:25:19;7.33;;;6.63;;
769;SDS011;368;48.698;9.116;2024-03-06T06:27:46;8.80;;;6.80;;
769;SDS011;368;48.698;9.116;2024-03-06T06:30:14;9.10;;;7.47;;
769;SDS011;368;48.698;9.116;2024-03-06T06:32:41;9.90;;;8.30;;
769;SDS011;368;48.698;9.116;2024-03-06T06:35:09;9.97;;;6.90;;
769;SDS011;368;48.698;9.116;2024-03-06T06:37:39;8.27;;;5.70;;
769;SDS011;368;48.698;9.116;2024-03-06T06:40:08;7.30;;;6.60;;
769;SDS011;368;48.698;9.116;2024-03-06T06:42:38;6.17;;;5.13;;
769;SDS011;368;48.698;9.116;2024-03-06T06:45:14;6.77;;;6.10;;
769;SDS011;368;48.698;9.116;2024-03-06T06:47:41;6.47;;;5.43;;
769;SDS011;368;48.698;9.116;2024-03-06T06:50:08;6.83;;;5.60;;
769;SDS011;368;48.698;9.116;2024-03-06T06:52:36;6.90;;;6.20;;
769;SDS011;368;48.698;9.116;2024-03-06T06:55:04;10.07;;;5.27;;
769;SDS011;368;48.698;9.116;2024-03-06T06:57:33;8.50;;;5.30;;
769;SDS011;368;48.698;9.116;2024-03-06T07:00:00;9.00;;;5.63;;
769;SDS011;368;48.698;9.116;2024-03-06T07:02:35;8.30;;;5.83;;
769;SDS011;368;48.698;9.116;2024-03-06T07:05:03;6.30;;;5.40;;
769;SDS011;368;48.698;9.116;2024-03-06T07:07:31;7.97;;;5.90;;
769;SDS011;368;48.698;9.116;2024-03-06T07:09:58;7.00;;;4.87;;
769;SDS011;368;48.698;9.116;2024-03-06T07:12:24;9.27;;;6.00;;
769;SDS011;368;48.698;9.116;2024-03-06T07:14:54;9.27;;;5.10;;
769;SDS011;368;48.698;9.116;2024-03-06T07:17:20;6.37;;;5.57;;
769;SDS011;368;48.698;9.116;2024-03-06T07:19:47;9.37;;;5.03;;
769;SDS011;368;48.698;9.116;2024-03-06T07:22:15;7.13;;;5.07;;
769;SDS011;368;48.698;9.116;2024-03-06T07:24:42;8.77;;;5.60;;
769;SDS011;368;48.698;9.116;2024-03-06T07:27:10;7.53;;;4.87;;
769;SDS011;368;48.698;9.116;2024-03-06T07:29:36;6.00;;;5.13;;
769;SDS011;368;48.698;9.116;2024-03-06T07:32:05;7.80;;;5.23;;
769;SDS011;368;48.698;9.116;2024-03-06T07:34:32;9.63;;;6.47;;
769;SDS011;368;48.698;9.116;2024-03-06T07:36:59;9.53;;;7.40;;
769;SDS011;368;48.698;9.116;2024-03-06T07:39:26;12.50;;;5.93;;
769;SDS011;368;48.698;9.116;2024-03-06T07:41:53;8.17;;;6.20;;
769;SDS011;368;48.698;9.116;2024-03-06T07:44:20;11.30;;;6.77;;
769;SDS011;368;48.698;9.116;2024-03-06T07:46:47;7.60;;;6.00;;
769;SDS011;368;48.698;9.116;2024-03-06T07:49:16;8.83;;;6.13;;
769;SDS011;368;48.698;9.116;2024-03-06T07:51:42;8.00;;;6.43;;
769;SDS011;368;48.698;9.116;2024-03-06T07:54:09;7.47;;;6.77;;
769;SDS011;368;48.698;9.116;2024-03-06T07:56:36;9.00;;;6.37;;
769;SDS011;368;48.698;9.116;2024-03-06T07:59:03;9.07;;;7.27;;
769;SDS011;368;48.698;9.116;2024-03-06T08:01:31;7.73;;;6.73;;
769;SDS011;368;48.698;9.116;2024-03-06T08:03:58;8.43;;;7.63;;
769;SDS011;368;48.698;9.116;2024-03-06T08:06:26;9.70;;;7.27;;
769;SDS011;368;48.698;9.116;2024-03-06T08:08:54;9.13;;;7.43;;
769;SDS011;368;48.698;9.116;2024-03-06T08:11:21;8.87;;;7.97;;
769;SDS011;368;48.698;9.116;2024-03-06T08:13:49;9.53;;;7.80;;
769;SDS011;368;48.698;9.116;2024-03-06T08:16:16;11.07;;;8.20;;
769;SDS011;368;48.698;9.116;2024-03-06T08:18:43;9.93;;;7.07;;
769;SDS011;368;48.698;9.116;2024-03-06T08:21:10;8.90;;;8.00;;
769;SDS011;368;48.698;9.116;2024-03-06T08:23:38;8.53;;;7.63;;
769;SDS011;368;48.698;9.116;2024-03-06T08:26:05;7.50;;;6.77;;
769;SDS011;368;48.698;9.116;2024-03-06T08:28:32;8.47;;;7.67;;
769;SDS011;368;48.698;9.116;2024-03-06T08:30:59;8.20;;;7.43;;
769;SDS011;368;48.698;9.116;2024-03-06T08:33:26;8.27;;;7.43;;
769;SDS011;368;48.698;9.116;2024-03-06T08:35:53;8.03;;;7.03;;
769;SDS011;368;48.698;9.116;2024-03-06T08:38:20;7.67;;;6.23;;
769;SDS011;368;48.698;9.116;2024-03-06T08:40:48;7.73;;;6.93;;
769;SDS011;368;48.698;9.116;2024-03-06T08:43:15;7.73;;;6.33;;
769;SDS011;368;48.698;9.116;2024-03-06T08:45:44;9.10;;;6.73;;
769;SDS011;368;48.698;9.116;2024-03-06T08:48:12;10.10;;;6.10;;
769;SDS011;368;48.698;9.116;2024-03-06T08:50:39;7.03;;;5.83;;
769;SDS011;368;48.698;9.116;2024-03-06T08:53:06;9.73;;;6.17;;
769;SDS011;368;48.698;9.116;2024-03-06T08:55:34;6.20;;;5.40;;
769;SDS011;368;48.698;9.116;2024-03-06T08:58:02;6.13;;;5.57;;
769;SDS011;368;48.698;9.116;2024-03-06T09:00:29;6.77;;;6.10;;
769;SDS011;368;48.698;9.116;2024-03-06T09:02:56;6.90;;;6.10;;
769;SDS011;368;48.698;9.116;2024-03-06T09:05:24;7.00;;;5.50;;
769;SDS011;368;48.698;9.116;2024-03-06T09:07:51;9.37;;;6.20;;
769;SDS011;368;48.698;9.116;2024-03-06T09:10:18;5.43;;;4.93;;
769;SDS011;368;48.698;9.116;2024-03-06T09:12:45;7.30;;;4.90;;
769;SDS011;368;48.698;9.116;2024-03-06T09:15:14;8.13;;;6.97;;
769;SDS011;368;48.698;9.116;2024-03-06T09:17:42;8.20;;;6.50;;
769;SDS011;368;48.698;9.116;2024-03-06T09:20:11;7.10;;;6.20;;
769;SDS011;368;48.698;9.116;2024-03-06T09:22:41;11.57;;;6.63;;
769;SDS011;368;48.698;9.116;2024-03-06T09:25:08;8.00;;;7.20;;
769;SDS011;368;48.698;9.116;2024-03-06T09:27:37;9.10;;;8.03;;
769;SDS011;368;48.698;9.116;2024-03-06T09:30:04;7.63;;;6.77;;
769;SDS011;368;48.698;9.116;2024-03-06T09:32:35;7.83;;;6.50;;
769;SDS011;368;48.698;9.116;2024-03-06T09:35:02;8.03;;;7.33;;
769;SDS011;368;48.698;9.116;2024-03-06T09:37:29;12.57;;;7.90;;
769;SDS011;368;48.698;9.116;2024-03-06T09:39:56;10.10;;;8.50;;
769;SDS011;368;48.698;9.116;2024-03-06T09:42:23;7.40;;;6.63;;
769;SDS011;368;48.698;9.116;2024-03-06T09:44:50;7.77;;;6.97;;
769;SDS011;368;48.698;9.116;2024-03-06T09:47:18;11.37;;;8.23;;
769;SDS011;368;48.698;9.116;2024-03-06T09:49:51;10.17;;;7.60;;
769;SDS011;368;48.698;9.116;2024-03-06T09:52:19;7.50;;;6.77;;
769;SDS011;368;48.698;9.116;2024-03-06T09:54:47;8.73;;;7.43;;
769;SDS011;368;48.698;9.116;2024-03-06T09:57:15;7.50;;;6.70;;
769;SDS011;368;48.698;9.116;2024-03-06T09:59:42;9.50;;;6.50;;
769;SDS011;368;48.698;9.116;2024-03-06T10:02:12;8.50;;;7.40;;
769;SDS011;368;48.698;9.116;2024-03-06T10:04:54;8.40;;;7.60;;
769;SDS011;368;48.698;9.116;2024-03-06T10:07:22;8.33;;;7.53;;
769;SDS011;368;48.698;9.116;2024-03-06T10:09:48;8.07;;;7.23;;
769;SDS011;368;48.698;9.116;2024-03-06T10:12:17;7.53;;;6.93;;
769;SDS011;368;48.698;9.116;2024-03-06T10:14:48;10.30;;;7.33;;
769;SDS011;368;48.698;9.116;2024-03-06T10:17:18;7.97;;;7.23;;
769;SDS011;368;48.698;9.116;2024-03-06T10:19:48;7.77;;;6.97;;
769;SDS011;368;48.698;9.116;2024-03-06T10:22:18;8.30;;;7.50;;
769;SDS011;368;48.698;9.116;2024-03-06T10:24:49;9.13;;;8.23;;
769;SDS011;368;48.698;9.116;2024-03-06T10:27:17;11.03;;;8.97;;
769;SDS011;368;48.698;9.116;2024-03-06T10:29:43;9.53;;;8.40;;
769;SDS011;368;48.698;9.116;2024-03-06T10:32:10;11.37;;;8.60;;
769;SDS011;368;48.698;9.116;2024-03-06T10:34:44;12.10;;;9.40;;
769;SDS011;368;48.698;9.116;2024-03-06T10:37:11;11.60;;;9.30;;
769;SDS011;368;48.698;9.116;2024-03-06T10:39:42;9.43;;;8.47;;
769;SDS011;368;48.698;9.116;2024-03-06T10:42:09;12.60;;;9.43;;
769;SDS011;368;48.698;9.116;2024-03-06T10:44:41;9.83;;;8.83;;
769;SDS011;368;48.698;9.116;2024-03-06T10:47:17;10.70;;;8.80;;
769;SDS011;368;48.698;9.116;2024-03-06T10:49:46;11.30;;;10.20;;
769;SDS011;368;48.698;9.116;2024-03-06T10:52:14;10.67;;;9.57;;
769;SDS011;368;48.698;9.116;2024-03-06T10:54:45;11.90;;;9.93;;
769;SDS011;368;48.698;9.116;2024-03-06T10:57:14;10.57;;;8.43;;
769;SDS011;368;48.698;9.116;2024-03-06T10:59:41;11.97;;;10.07;;
769;SDS011;368;48.698;9.116;2024-03-06T11:02:09;10.10;;;8.77;;
769;SDS011;368;48.698;9.116;2024-03-06T11:04:37;11.00;;;8.50;;
769;SDS011;368;48.698;9.116;2024-03-06T11:07:06;12.97;;;9.90;;
769;SDS011;368;48.698;9.116;2024-03-06T11:09:34;12.83;;;9.87;;
769;SDS011;368;48.698;9.116;2024-03-06T11:12:05;10.97;;;9.87;;
769;SDS011;368;48.698;9.116;2024-03-06T11:14:32;11.97;;;10.47;;
769;SDS011;368;48.698;9.116;2024-03-06T11:17:04;11.83;;;10.63;;
769;SDS011;368;48.698;9.116;2024-03-06T11:20:07;16.73;;;13.77;;
769;SDS011;368;48.698;9.116;2024-03-06T11:28:25;14.53;;;12.20;;
769;SDS011;368;48.698;9.116;2024-03-06T11:30:57;14.37;;;11.80;;
769;SDS011;368;48.698;9.116;2024-03-06T11:33:28;13.77;;;11.17;;
769;SDS011;368;48.698;9.116;2024-03-06T11:36:17;15.53;;;13.27;;
769;SDS011;368;48.698;9.116;2024-03-06T11:38:51;14.33;;;12.23;;
769;SDS011;368;48.698;9.116;2024-03-06T11:41:19;19.93;;;13.90;;
769;SDS011;368;48.698;9.116;2024-03-06T11:43:49;15.90;;;12.97;;
769;SDS011;368;48.698;9.116;2024-03-06T11:46:18;16.90;;;13.47;;
769;SDS011;368;48.698;9.116;2024-03-06T11:48:51;19.80;;;15.17;;
769;SDS011;368;48.698;9.116;2024-03-06T11:51:19;17.77;;;14.23;;
769;SDS011;368;48.698;9.116;2024-03-06T11:53:48;19.60;;;15.47;;
769;SDS011;368;48.698;9.116;2024-03-06T11:56:17;18.80;;;14.80;;
769;SDS011;368;48.698;9.116;2024-03-06T11:58:45;19.50;;;15.10;;
769;SDS011;368;48.698;9.116;2024-03-06T12:01:14;19.13;;;14.97;;
769;SDS011;368;48.698;9.116;2024-03-06T12:03:41;17.00;;;14.77;;
769;SDS011;368;48.698;9.116;2024-03-06T12:06:09;19.60;;;15.67;;
769;SDS011;368;48.698;9.116;2024-03-06T12:08:36;17.77;;;13.70;;
769;SDS011;368;48.698;9.116;2024-03-06T12:11:04;18.50;;;14.77;;
769;SDS011;368;48.698;9.116;2024-03-06T12:13:32;19.10;;;13.53;;
769;SDS011;368;48.698;9.116;2024-03-06T12:16:03;18.00;;;13.87;;
769;SDS011;368;48.698;9.116;2024-03-06T12:18:32;17.27;;;15.10;;
769;SDS011;368;48.698;9.116;2024-03-06T12:21:00;19.30;;;14.93;;
769;SDS011;368;48.698;9.116;2024-03-06T12:23:28;19.40;;;15.00;;
769;SDS011;368;48.698;9.116;2024-03-06T12:26:04;20.07;;;14.90;;
769;SDS011;368;48.698;9.116;2024-03-06T12:28:34;22.57;;;15.70;;
769;SDS011;368;48.698;9.116;2024-03-06T12:31:01;19.90;;;15.33;;
769;SDS011;368;48.698;9.116;2024-03-06T12:33:29;23.13;;;17.10;;
769;SDS011;368;48.698;9.116;2024-03-06T12:36:02;20.40;;;15.37;;
769;SDS011;368;48.698;9.116;2024-03-06T12:38:35;20.07;;;15.03;;
769;SDS011;368;48.698;9.116;2024-03-06T12:41:03;24.47;;;19.10;;
769;SDS011;368;48.698;9.116;2024-03-06T12:43:32;23.73;;;17.13;;
769;SDS011;368;48.698;9.116;2024-03-06T12:45:59;34.50;;;23.80;;
769;SDS011;368;48.698;9.116;2024-03-06T12:48:27;32.07;;;22.77;;
769;SDS011;368;48.698;9.116;2024-03-06T12:50:55;92.80;;;62.70;;
769;SDS011;368;48.698;9.116;2024-03-06T12:53:31;24.93;;;17.57;;
769;SDS011;368;48.698;9.116;2024-03-06T12:55:58;26.60;;;21.67;;
769;SDS011;368;48.698;9.116;2024-03-06T12:58:24;25.23;;;16.90;;
769;SDS011;368;48.698;9.116;2024-03-06T13:00:51;22.20;;;15.97;;
769;SDS011;368;48.698;9.116;2024-03-06T13:03:19;20.03;;;16.10;;
769;SDS011;368;48.698;9.116;2024-03-06T13:05:46;19.87;;;16.07;;
769;SDS011;368;48.698;9.116;2024-03-06T13:08:13;22.20;;;17.43;;
769;SDS011;368;48.698;9.116;2024-03-06T13:10:41;23.53;;;17.33;;
769;SDS011;368;48.698;9.116;2024-03-06T13:13:10;21.57;;;16.77;;
769;SDS011;368;48.698;9.116;2024-03-06T13:15:37;20.50;;;16.53;;
769;SDS011;368;48.698;9.116;2024-03-06T13:18:04;20.60;;;15.87;;
769;SDS011;368;48.698;9.116;2024-03-06T13:20:31;20.87;;;14.97;;
769;SDS011;368;48.698;9.116;2024-03-06T13:22:58;20.60;;;16.60;;
769;SDS011;368;48.698;9.116;2024-03-06T13:25:25;24.57;;;16.70;;
769;SDS011;368;48.698;9.116;2024-03-06T13:27:55;20.50;;;17.33;;
769;SDS011;368;48.698;9.116;2024-03-06T13:30:22;23.70;;;17.00;;
769;SDS011;368;48.698;9.116;2024-03-06T13:32:49;21.77;;;16.63;;
769;SDS011;368;48.698;9.116;2024-03-06T13:35:16;20.40;;;16.80;;
769;SDS011;368;48.698;9.116;2024-03-06T13:37:43;22.97;;;16.37;;
769;SDS011;368;48.698;9.116;2024-03-06T13:40:11;20.40;;;15.50;;
769;SDS011;368;48.698;9.116;2024-03-06T13:42:39;19.90;;;15.67;;
769;SDS011;368;48.698;9.116;2024-03-06T13:45:08;22.47;;;16.17;;
769;SDS011;368;48.698;9.116;2024-03-06T13:47:36;18.97;;;15.53;;
769;SDS011;368;48.698;9.116;2024-03-06T13:50:04;21.13;;;15.67;;
769;SDS011;368;48.698;9.116;2024-03-06T13:52:33;22.67;;;15.33;;
769;SDS011;368;48.698;9.116;2024-03-06T13:55:00;21.90;;;17.67;;
769;SDS011;368;48.698;9.116;2024-03-06T13:57:29;21.93;;;16.47;;
769;SDS011;368;48.698;9.116;2024-03-06T13:59:58;18.40;;;15.17;;
769;SDS011;368;48.698;9.116;2024-03-06T14:02:26;20.13;;;16.00;;
769;SDS011;368;48.698;9.116;2024-03-06T14:04:54;24.00;;;19.17;;
769;SDS011;368;48.698;9.116;2024-03-06T14:07:21;22.37;;;17.43;;
769;SDS011;368;48.698;9.116;2024-03-06T14:09:48;24.30;;;18.10;;
769;SDS011;368;48.698;9.116;2024-03-06T14:12:15;27.63;;;19.90;;
769;SDS011;368;48.698;9.116;2024-03-06T14:14:42;23.70;;;16.70;;
769;SDS011;368;48.698;9.116;2024-03-06T14:17:10;23.23;;;17.87;;
769;SDS011;368;48.698;9.116;2024-03-06T14:19:39;24.93;;;18.10;;
769;SDS011;368;48.698;9.116;2024-03-06T14:22:06;21.40;;;15.90;;
769;SDS011;368;48.698;9.116;2024-03-06T14:24:33;19.70;;;15.63;;
769;SDS011;368;48.698;9.116;2024-03-06T14:27:01;23.40;;;17.80;;
769;SDS011;368;48.698;9.116;2024-03-06T14:29:29;24.40;;;16.73;;
769;SDS011;368;48.698;9.116;2024-03-06T14:31:55;19.87;;;16.93;;
769;SDS011;368;48.698;9.116;2024-03-06T14:34:23;19.73;;;16.80;;
769;SDS011;368;48.698;9.116;2024-03-06T14:36:51;20.50;;;16.77;;
769;SDS011;368;48.698;9.116;2024-03-06T14:39:18;21.97;;;16.80;;
769;SDS011;368;48.698;9.116;2024-03-06T14:41:47;19.13;;;16.10;;
769;SDS011;368;48.698;9.116;2024-03-06T14:44:14;19.63;;;17.53;;
769;SDS011;368;48.698;9.116;2024-03-06T14:46:41;19.10;;;16.60;;
769;SDS011;368;48.698;9.116;2024-03-06T14:49:08;24.80;;;18.73;;
769;SDS011;368;48.698;9.116;2024-03-06T14:51:35;22.47;;;17.83;;
769;SDS011;368;48.698;9.116;2024-03-06T14:54:04;24.30;;;18.83;;
769;SDS011;368;48.698;9.116;2024-03-06T14:56:31;24.63;;;19.40;;
769;SDS011;368;48.698;9.116;2024-03-06T14:58:58;21.90;;;18.47;;
769;SDS011;368;48.698;9.116;2024-03-06T15:01:25;25.17;;;19.30;;
769;SDS011;368;48.698;9.116;2024-03-06T15:03:52;22.37;;;19.10;;
769;SDS011;368;48.698;9.116;2024-03-06T15:06:20;24.10;;;17.57;;
769;SDS011;368;48.698;9.116;2024-03-06T15:08:47;21.40;;;17.47;;
769;SDS011;368;48.698;9.116;2024-03-06T15:11:16;21.30;;;16.07;;
769;SDS011;368;48.698;9.116;2024-03-06T15:13:42;19.83;;;16.30;;
769;SDS011;368;48.698;9.116;2024-03-06T15:16:10;18.47;;;15.80;;
769;SDS011;368;48.698;9.116;2024-03-06T15:18:38;19.23;;;15.00;;
769;SDS011;368;48.698;9.116;2024-03-06T15:21:06;17.67;;;13.90;;
769;SDS011;368;48.698;9.116;2024-03-06T15:23:32;17.30;;;14.23;;
769;SDS011;368;48.698;9.116;2024-03-06T15:25:59;17.33;;;13.63;;
769;SDS011;368;48.698;9.116;2024-03-06T15:28:26;14.70;;;12.70;;
769;SDS011;368;48.698;9.116;2024-03-06T15:30:53;15.17;;;12.70;;
769;SDS011;368;48.698;9.116;2024-03-06T15:33:21;14.23;;;12.60;;
769;SDS011;368;48.698;9.116;2024-03-06T15:35:48;14.77;;;12.60;;
769;SDS011;368;48.698;9.116;2024-03-06T15:38:15;17.40;;;14.73;;
769;SDS011;368;48.698;9.116;2024-03-06T15:40:42;14.87;;;13.17;;
769;SDS011;368;48.698;9.116;2024-03-06T15:43:09;14.80;;;13.03;;
769;SDS011;368;48.698;9.116;2024-03-06T15:45:37;17.87;;;14.23;;